createdAt,value
2022-09-06T00:00:12.064Z,99918.20
2022-09-06T00:01:14.067Z,99916.85
2022-09-06T00:02:11.065Z,99916.15
2022-09-06T00:03:11.077Z,99913.20
2022-09-06T00:04:15.222Z,99914.49
2022-09-06T00:05:11.066Z,99911.93
2022-09-06T00:06:11.071Z,99912.79
2022-09-06T00:07:11.063Z,99908.16
2022-09-06T00:08:11.067Z,99908.98
2022-09-06T00:09:11.074Z,99907.27
2022-09-06T00:10:11.068Z,99909.32
2022-09-06T00:11:11.069Z,99906.93
2022-09-06T00:12:11.072Z,99907.49
2022-09-06T00:13:11.064Z,99905.56
2022-09-06T00:14:11.065Z,99905.86
2022-09-06T00:15:11.080Z,99905.39
2022-09-06T00:16:14.144Z,99907.64
2022-09-06T00:17:11.080Z,99907.45
2022-09-06T00:18:11.073Z,99904.50
2022-09-06T00:19:11.064Z,99902.07
2022-09-06T00:20:12.072Z,99901.53
2022-09-06T00:21:18.059Z,99898.88
2022-09-06T00:22:11.054Z,99898.98
2022-09-06T00:23:11.058Z,99902.96
2022-09-06T00:24:11.064Z,99903.15
2022-09-06T00:25:11.054Z,99902.76
2022-09-06T00:26:11.058Z,99899.39
2022-09-06T00:27:11.063Z,99899.30
2022-09-06T00:28:11.055Z,99896.89
2022-09-06T00:29:11.059Z,99897.39
2022-09-06T00:30:11.066Z,99899.63
2022-09-06T00:31:13.127Z,99899.54
2022-09-06T00:32:11.054Z,99898.22
2022-09-06T00:33:11.061Z,99900.87
2022-09-06T00:34:11.060Z,99902.15
2022-09-06T00:35:11.057Z,99902.06
2022-09-06T00:36:11.058Z,99898.48
2022-09-06T00:37:11.059Z,99895.94
2022-09-06T00:38:11.059Z,99897.29
2022-09-06T00:39:11.057Z,99896.27
2022-09-06T00:40:11.154Z,99896.37
2022-09-06T00:41:11.060Z,99897.83
2022-09-06T00:42:11.058Z,99895.96
2022-09-06T00:43:11.061Z,99898.51
2022-09-06T00:44:11.058Z,99898.78
2022-09-06T00:45:11.059Z,99896.04
2022-09-06T00:46:13.110Z,99891.68
2022-09-06T00:47:11.062Z,99891.46
2022-09-06T00:48:11.058Z,99892.08
2022-09-06T00:49:20.061Z,99892.73
2022-09-06T00:50:12.057Z,99892.62
2022-09-06T00:51:11.060Z,99892.34
2022-09-06T00:52:13.061Z,99893.20
2022-09-06T00:53:11.060Z,99892.40
2022-09-06T00:54:11.060Z,99891.33
2022-09-06T00:55:11.061Z,99895.41
2022-09-06T00:56:11.059Z,99895.38
2022-09-06T00:57:11.061Z,99894.26
2022-09-06T00:58:11.063Z,99894.32
2022-09-06T00:59:11.061Z,99891.41
2022-09-06T01:00:11.061Z,99895.30
2022-09-06T01:01:11.210Z,99894.21
2022-09-06T01:02:11.163Z,99894.30
2022-09-06T01:03:11.062Z,99886.12
2022-09-06T01:04:11.062Z,99886.30
2022-09-06T01:05:11.062Z,99886.92
2022-09-06T01:06:21.063Z,99885.50
2022-09-06T01:07:19.070Z,99885.41
2022-09-06T01:08:19.064Z,99884.91
2022-09-06T01:09:19.061Z,99888.71
2022-09-06T01:10:19.060Z,99884.06
2022-09-06T01:11:19.063Z,99885.03
2022-09-06T01:12:19.076Z,99885.20
2022-09-06T01:13:21.063Z,99884.40
2022-09-06T01:14:21.061Z,99886.25
2022-09-06T01:15:19.063Z,99885.66
2022-09-06T01:16:19.193Z,99888.69
2022-09-06T01:17:19.070Z,99892.45
2022-09-06T01:18:19.068Z,99894.95
2022-09-06T01:19:19.062Z,99895.77
2022-09-06T01:20:21.056Z,99889.96
2022-09-06T01:21:19.060Z,99890.63
2022-09-06T01:22:19.062Z,99888.16
2022-09-06T01:23:19.061Z,99891.52
2022-09-06T01:24:23.061Z,99888.13
2022-09-06T01:25:21.059Z,99890.13
2022-09-06T01:26:19.056Z,99892.63
2022-09-06T01:27:21.059Z,99894.61
2022-09-06T01:28:19.069Z,99898.54
2022-09-06T01:29:19.061Z,99897.02
2022-09-06T01:30:11.058Z,99898.71
2022-09-06T01:31:21.165Z,99896.02
2022-09-06T01:32:19.063Z,99893.00
2022-09-06T01:33:19.068Z,99895.43
2022-09-06T01:34:21.063Z,99894.55
2022-09-06T01:35:19.059Z,99899.14
2022-09-06T01:36:14.058Z,99896.46
2022-09-06T01:37:16.064Z,99893.75
2022-09-06T01:38:11.069Z,99893.42
2022-09-06T01:39:17.062Z,99896.21
2022-09-06T01:40:11.158Z,99894.28
2022-09-06T01:41:11.069Z,99897.33
2022-09-06T01:42:15.060Z,99900.14
2022-09-06T01:43:13.065Z,99902.35
2022-09-06T01:44:11.062Z,99896.18
2022-09-06T01:45:12.066Z,99894.15
2022-09-06T01:46:19.122Z,99892.24
2022-09-06T01:47:21.062Z,99889.59
2022-09-06T01:48:21.181Z,99889.96
2022-09-06T01:49:19.064Z,99890.31
2022-09-06T01:50:21.065Z,99886.64
2022-09-06T01:51:21.065Z,99888.13
2022-09-06T01:52:19.065Z,99883.09
2022-09-06T01:53:21.066Z,99881.14
2022-09-06T01:54:21.071Z,99882.82
2022-09-06T01:55:19.064Z,99882.09
2022-09-06T01:56:19.063Z,99879.98
2022-09-06T01:57:21.067Z,99881.31
2022-09-06T01:58:19.067Z,99886.89
2022-09-06T01:59:19.066Z,99888.56
2022-09-06T02:00:14.065Z,99884.24
2022-09-06T02:01:19.186Z,99881.61
2022-09-06T02:02:17.137Z,99880.06
2022-09-06T02:03:19.066Z,99877.95
2022-09-06T02:04:19.065Z,99874.91
2022-09-06T02:05:21.062Z,99874.60
2022-09-06T02:06:14.066Z,99874.81
2022-09-06T02:07:20.076Z,99873.54
2022-09-06T02:08:12.074Z,99875.31
2022-09-06T02:09:14.064Z,99878.59
2022-09-06T02:10:20.068Z,99879.01
2022-09-06T02:11:11.065Z,99877.89
2022-09-06T02:12:12.066Z,99883.69
2022-09-06T02:13:12.066Z,99885.62
2022-09-06T02:14:17.070Z,99881.74
2022-09-06T02:15:16.069Z,99878.95
2022-09-06T02:16:12.065Z,99877.96
2022-09-06T02:17:13.069Z,99879.10
2022-09-06T02:18:16.075Z,99883.95
2022-09-06T02:19:17.069Z,99883.35
2022-09-06T02:20:18.066Z,99884.82
2022-09-06T02:21:12.059Z,99880.34
2022-09-06T02:22:11.065Z,99880.56
2022-09-06T02:23:11.066Z,99883.34
2022-09-06T02:24:15.064Z,99878.22
2022-09-06T02:25:14.071Z,99876.07
2022-09-06T02:26:13.066Z,99873.42
2022-09-06T02:27:11.063Z,99875.79
2022-09-06T02:28:11.070Z,99874.49
2022-09-06T02:29:11.065Z,99877.23
2022-09-06T02:30:11.063Z,99873.06
2022-09-06T02:31:19.143Z,99874.40
2022-09-06T02:32:18.067Z,99873.60
2022-09-06T02:33:14.063Z,99872.35
2022-09-06T02:34:11.061Z,99869.49
2022-09-06T02:35:14.072Z,99870.16
2022-09-06T02:36:11.068Z,99869.21
2022-09-06T02:37:11.065Z,99871.34
2022-09-06T02:38:11.070Z,99869.72
2022-09-06T02:39:11.066Z,99871.39
2022-09-06T02:40:11.174Z,99871.28
2022-09-06T02:41:11.064Z,99870.99
2022-09-06T02:42:11.065Z,99870.33
2022-09-06T02:43:11.069Z,99872.89
2022-09-06T02:44:11.067Z,99870.05
2022-09-06T02:45:11.066Z,99867.06
2022-09-06T02:46:11.147Z,99868.67
2022-09-06T02:47:11.068Z,99866.95
2022-09-06T02:48:11.067Z,99861.88
2022-09-06T02:49:11.063Z,99856.65
2022-09-06T02:50:12.074Z,99856.15
2022-09-06T02:51:11.067Z,99855.50
2022-09-06T02:52:11.067Z,99858.59
2022-09-06T02:53:14.073Z,99859.66
2022-09-06T02:54:11.069Z,99860.73
2022-09-06T02:55:11.070Z,99865.26
2022-09-06T02:56:11.069Z,99861.04
2022-09-06T02:57:11.069Z,99863.43
2022-09-06T02:58:11.068Z,99861.22
2022-09-06T02:59:11.068Z,99862.89
2022-09-06T03:00:11.072Z,99859.34
2022-09-06T03:01:11.092Z,99858.80
2022-09-06T03:02:11.145Z,99860.46
2022-09-06T03:03:11.070Z,99855.93
2022-09-06T03:04:11.067Z,99856.07
2022-09-06T03:05:11.067Z,99857.77
2022-09-06T03:06:11.070Z,99852.96
2022-09-06T03:07:11.070Z,99858.68
2022-09-06T03:08:11.068Z,99852.39
2022-09-06T03:09:11.069Z,99855.14
2022-09-06T03:10:11.068Z,99851.39
2022-09-06T03:11:11.070Z,99851.55
2022-09-06T03:12:11.070Z,99850.28
2022-09-06T03:13:11.068Z,99850.33
2022-09-06T03:14:11.068Z,99850.61
2022-09-06T03:15:11.070Z,99851.94
2022-09-06T03:16:11.126Z,99852.31
2022-09-06T03:17:11.076Z,99858.84
2022-09-06T03:18:11.071Z,99859.03
2022-09-06T03:19:11.071Z,99861.35
2022-09-06T03:20:11.069Z,99861.16
2022-09-06T03:21:11.064Z,99860.08
2022-09-06T03:22:11.068Z,99859.97
2022-09-06T03:23:11.069Z,99858.00
2022-09-06T03:24:11.067Z,99861.86
2022-09-06T03:25:11.061Z,99860.43
2022-09-06T03:26:11.065Z,99857.68
2022-09-06T03:27:11.075Z,99858.61
2022-09-06T03:28:11.068Z,99856.98
2022-09-06T03:29:11.068Z,99857.32
2022-09-06T03:30:11.074Z,99856.06
2022-09-06T03:31:11.159Z,99852.27
2022-09-06T03:32:11.072Z,99850.81
2022-09-06T03:33:11.072Z,99851.58
2022-09-06T03:34:11.392Z,99850.59
2022-09-06T03:35:11.066Z,99851.68
2022-09-06T03:36:11.074Z,99853.92
2022-09-06T03:37:11.079Z,99851.65
2022-09-06T03:38:11.069Z,99849.13
2022-09-06T03:39:11.084Z,99849.11
2022-09-06T03:40:11.223Z,99845.99
2022-09-06T03:41:11.061Z,99845.11
2022-09-06T03:42:11.074Z,99844.59
2022-09-06T03:43:11.069Z,99850.70
2022-09-06T03:44:11.062Z,99848.71
2022-09-06T03:45:11.071Z,99850.75
2022-09-06T03:46:11.152Z,99847.61
2022-09-06T03:47:11.063Z,99850.45
2022-09-06T03:48:11.081Z,99846.51
2022-09-06T03:49:11.068Z,99847.23
2022-09-06T03:50:11.064Z,99844.37
2022-09-06T03:51:11.071Z,99840.11
2022-09-06T03:52:11.068Z,99840.09
2022-09-06T03:53:11.064Z,99839.34
2022-09-06T03:54:11.069Z,99843.58
2022-09-06T03:55:11.069Z,99841.50
2022-09-06T03:56:11.071Z,99840.45
2022-09-06T03:57:11.079Z,99836.48
2022-09-06T03:58:11.069Z,99835.76
2022-09-06T03:59:11.071Z,99833.82
2022-09-06T04:00:11.079Z,99827.56
2022-09-06T04:01:11.155Z,99832.29
2022-09-06T04:02:11.164Z,99829.58
2022-09-06T04:03:11.081Z,99827.11
2022-09-06T04:04:11.067Z,99828.22
2022-09-06T04:05:11.070Z,99825.56
2022-09-06T04:06:11.077Z,99827.29
2022-09-06T04:07:11.066Z,99826.93
2022-09-06T04:08:11.074Z,99821.68
2022-09-06T04:09:11.085Z,99823.44
2022-09-06T04:10:11.068Z,99821.84
2022-09-06T04:11:11.073Z,99815.75
2022-09-06T04:12:11.077Z,99814.73
2022-09-06T04:13:11.069Z,99814.11
2022-09-06T04:14:11.072Z,99815.79
2022-09-06T04:15:11.078Z,99811.84
2022-09-06T04:16:11.130Z,99813.49
2022-09-06T04:17:11.066Z,99813.46
2022-09-06T04:18:11.072Z,99811.75
2022-09-06T04:19:11.074Z,99813.04
2022-09-06T04:20:11.068Z,99812.68
2022-09-06T04:21:11.064Z,99816.13
2022-09-06T04:22:11.060Z,99816.07
2022-09-06T04:23:11.057Z,99815.74
2022-09-06T04:24:11.061Z,99818.85
2022-09-06T04:25:11.066Z,99814.86
2022-09-06T04:26:11.062Z,99818.47
2022-09-06T04:27:11.060Z,99817.24
2022-09-06T04:28:11.066Z,99822.16
2022-09-06T04:29:11.060Z,99821.03
2022-09-06T04:30:11.062Z,99822.32
2022-09-06T04:31:11.065Z,99819.84
2022-09-06T04:32:11.100Z,99814.71
2022-09-06T04:33:11.056Z,99810.29
2022-09-06T04:34:11.072Z,99806.26
2022-09-06T04:35:11.064Z,99805.78
2022-09-06T04:36:11.066Z,99806.32
2022-09-06T04:37:11.063Z,99803.34
2022-09-06T04:38:11.063Z,99806.19
2022-09-06T04:39:11.059Z,99804.39
2022-09-06T04:40:11.152Z,99805.54
2022-09-06T04:41:11.081Z,99802.24
2022-09-06T04:42:11.060Z,99798.70
2022-09-06T04:43:11.065Z,99792.60
2022-09-06T04:44:11.068Z,99790.84
2022-09-06T04:45:11.062Z,99789.22
2022-09-06T04:46:19.145Z,99790.12
2022-09-06T04:47:14.062Z,99793.50
2022-09-06T04:48:11.070Z,99795.39
2022-09-06T04:49:11.061Z,99793.77
2022-09-06T04:50:11.066Z,99796.61
2022-09-06T04:51:11.070Z,99791.31
2022-09-06T04:52:11.064Z,99792.75
2022-09-06T04:53:11.154Z,99792.59
2022-09-06T04:54:11.064Z,99793.33
2022-09-06T04:55:11.063Z,99795.89
2022-09-06T04:56:16.068Z,99796.17
2022-09-06T04:57:11.065Z,99798.23
2022-09-06T04:58:11.071Z,99793.77
2022-09-06T04:59:11.065Z,99792.14
2022-09-06T05:00:11.060Z,99791.64
2022-09-06T05:01:11.184Z,99790.35
2022-09-06T05:02:11.096Z,99789.51
2022-09-06T05:03:11.064Z,99789.87
2022-09-06T05:04:11.063Z,99788.87
2022-09-06T05:05:11.067Z,99789.38
2022-09-06T05:06:18.062Z,99790.69
2022-09-06T05:07:11.066Z,99788.74
2022-09-06T05:08:11.072Z,99787.39
2022-09-06T05:09:11.065Z,99786.27
2022-09-06T05:10:11.069Z,99784.21
2022-09-06T05:11:11.073Z,99785.17
2022-09-06T05:12:11.068Z,99784.16
2022-09-06T05:13:11.072Z,99782.25
2022-09-06T05:14:11.069Z,99783.74
2022-09-06T05:15:11.068Z,99785.35
2022-09-06T05:16:11.096Z,99785.35
2022-09-06T05:17:11.067Z,99783.54
2022-09-06T05:18:15.550Z,99783.66
2022-09-06T05:19:13.112Z,99787.59
2022-09-06T05:20:11.070Z,99788.23
2022-09-06T05:21:11.062Z,99790.52
2022-09-06T05:22:11.061Z,99790.68
2022-09-06T05:23:11.059Z,99789.50
2022-09-06T05:24:11.058Z,99787.60
2022-09-06T05:25:11.061Z,99788.37
2022-09-06T05:26:11.059Z,99789.42
2022-09-06T05:27:11.061Z,99795.83
2022-09-06T05:28:11.067Z,99796.70
2022-09-06T05:29:11.061Z,99799.64
2022-09-06T05:30:11.063Z,99796.49
2022-09-06T05:31:11.073Z,99794.72
2022-09-06T05:32:11.061Z,99794.32
2022-09-06T05:33:11.066Z,99793.21
2022-09-06T05:34:11.063Z,99791.04
2022-09-06T05:35:11.062Z,99791.96
2022-09-06T05:36:11.062Z,99797.54
2022-09-06T05:37:11.060Z,99798.57
2022-09-06T05:38:11.064Z,99800.67
2022-09-06T05:39:11.059Z,99799.81
2022-09-06T05:40:11.103Z,99799.12
2022-09-06T05:41:11.069Z,99797.43
2022-09-06T05:42:11.063Z,99796.30
2022-09-06T05:43:11.066Z,99797.86
2022-09-06T05:44:11.070Z,99800.30
2022-09-06T05:45:11.061Z,99802.84
2022-09-06T05:46:11.130Z,99802.53
2022-09-06T05:47:11.072Z,99797.88
2022-09-06T05:48:11.065Z,99798.89
2022-09-06T05:49:11.060Z,99796.70
2022-09-06T05:50:11.065Z,99802.59
2022-09-06T05:51:13.063Z,99802.85
2022-09-06T05:52:11.063Z,99801.72
2022-09-06T05:53:11.064Z,99798.60
2022-09-06T05:54:12.066Z,99791.85
2022-09-06T05:55:11.087Z,99786.96
2022-09-06T05:56:13.069Z,99779.06
2022-09-06T05:57:11.066Z,99777.81
2022-09-06T05:58:11.071Z,99777.13
2022-09-06T05:59:11.068Z,99781.13
2022-09-06T06:00:11.074Z,99782.79
2022-09-06T06:01:21.123Z,99784.55
2022-09-06T06:02:11.084Z,99785.41
2022-09-06T06:03:11.064Z,99782.36
2022-09-06T06:04:11.067Z,99781.41
2022-09-06T06:05:11.064Z,99776.17
2022-09-06T06:06:11.067Z,99778.93
2022-09-06T06:07:11.074Z,99776.24
2022-09-06T06:08:11.067Z,99777.56
2022-09-06T06:09:11.066Z,99774.96
2022-09-06T06:10:11.078Z,99773.64
2022-09-06T06:11:11.067Z,99767.92
2022-09-06T06:12:11.068Z,99766.44
2022-09-06T06:13:11.074Z,99764.59
2022-09-06T06:14:11.068Z,99763.31
2022-09-06T06:15:11.065Z,99761.23
2022-09-06T06:16:13.134Z,99760.29
2022-09-06T06:17:11.070Z,99764.51
2022-09-06T06:18:11.071Z,99764.63
2022-09-06T06:19:11.068Z,99767.09
2022-09-06T06:20:11.078Z,99765.76
2022-09-06T06:21:15.061Z,99768.95
2022-09-06T06:22:11.070Z,99770.04
2022-09-06T06:23:11.075Z,99772.09
2022-09-06T06:24:11.072Z,99773.86
2022-09-06T06:25:12.603Z,99770.93
2022-09-06T06:26:11.081Z,99769.79
2022-09-06T06:27:11.073Z,99773.14
2022-09-06T06:28:11.062Z,99773.76
2022-09-06T06:29:13.064Z,99778.73
2022-09-06T06:30:13.246Z,99778.52
2022-09-06T06:31:13.899Z,99782.55
2022-09-06T06:32:11.094Z,99782.13
2022-09-06T06:33:11.061Z,99777.53
2022-09-06T06:34:11.058Z,99776.34
2022-09-06T06:35:11.059Z,99774.63
2022-09-06T06:36:19.061Z,99776.31
2022-09-06T06:37:11.062Z,99780.33
2022-09-06T06:38:11.057Z,99781.18
2022-09-06T06:39:11.064Z,99782.71
2022-09-06T06:40:11.126Z,99785.95
2022-09-06T06:41:11.060Z,99788.31
2022-09-06T06:42:11.063Z,99785.40
2022-09-06T06:43:11.064Z,99785.65
2022-09-06T06:44:11.057Z,99788.10
2022-09-06T06:45:11.077Z,99793.21
2022-09-06T06:46:12.102Z,99794.81
2022-09-06T06:47:11.062Z,99802.07
2022-09-06T06:48:11.066Z,99800.29
2022-09-06T06:49:11.064Z,99789.96
2022-09-06T06:50:11.063Z,99796.73
2022-09-06T06:51:14.064Z,99797.61
2022-09-06T06:52:11.063Z,99787.94
2022-09-06T06:53:11.060Z,99777.22
2022-09-06T06:54:11.063Z,99777.77
2022-09-06T06:55:11.069Z,99773.18
2022-09-06T06:56:19.061Z,99765.28
2022-09-06T06:57:11.059Z,99764.91
2022-09-06T06:58:11.066Z,99766.99
2022-09-06T06:59:11.064Z,99768.64
2022-09-06T07:00:11.064Z,99767.69
2022-09-06T07:01:11.166Z,99767.12
2022-09-06T07:02:11.183Z,99763.95
2022-09-06T07:03:11.065Z,99760.66
2022-09-06T07:04:11.070Z,99759.84
2022-09-06T07:06:13.336Z,99761.94
2022-09-06T07:07:37.933Z,99762.99
2022-09-06T07:08:13.088Z,99764.92
2022-09-06T07:09:11.064Z,99763.45
2022-09-06T07:10:34.747Z,99766.84
2022-09-06T07:11:13.067Z,99766.20
2022-09-06T07:12:11.066Z,99764.38
2022-09-06T07:13:11.065Z,99761.77
2022-09-06T07:14:11.067Z,99761.44
2022-09-06T07:15:11.073Z,99763.90
2022-09-06T07:16:15.156Z,99766.08
2022-09-06T07:17:11.065Z,99763.49
2022-09-06T07:18:11.066Z,99765.64
2022-09-06T07:20:13.872Z,99768.08
2022-09-06T07:21:39.313Z,99768.54
2022-09-06T07:22:13.756Z,99765.59
2022-09-06T07:24:13.328Z,99762.68
2022-09-06T07:25:11.062Z,99761.84
2022-09-06T07:26:14.061Z,99760.03
2022-09-06T07:28:14.086Z,99761.46
2022-09-06T07:29:11.067Z,99760.71
2022-09-06T07:30:11.063Z,99756.10
2022-09-06T07:32:13.154Z,99757.15
2022-09-06T07:33:11.069Z,99756.57
2022-09-06T07:34:11.059Z,99755.60
2022-09-06T07:35:11.063Z,99755.04
2022-09-06T07:36:11.068Z,99755.34
2022-09-06T07:37:11.062Z,99755.44
2022-09-06T07:38:11.064Z,99754.59
2022-09-06T07:39:11.064Z,99753.30
2022-09-06T07:40:11.137Z,99751.30
2022-09-06T07:41:12.058Z,99745.95
2022-09-06T07:42:11.065Z,99747.75
2022-09-06T07:43:11.065Z,99747.66
2022-09-06T07:44:11.061Z,99746.01
2022-09-06T07:45:11.070Z,99747.38
2022-09-06T07:46:11.064Z,99746.83
2022-09-06T07:48:13.852Z,99745.57
2022-09-06T07:49:11.064Z,99746.23
2022-09-06T07:51:20.063Z,99744.81
2022-09-06T07:53:15.315Z,99743.12
2022-09-06T07:54:29.825Z,99744.66
2022-09-06T07:55:13.065Z,99745.98
2022-09-06T07:56:11.066Z,99749.36
2022-09-06T07:57:11.064Z,99750.15
2022-09-06T07:58:11.077Z,99750.91
2022-09-06T07:59:11.067Z,99748.54
2022-09-06T08:00:11.067Z,99746.55
2022-09-06T08:01:19.143Z,99751.07
2022-09-06T08:02:11.145Z,99751.05
2022-09-06T08:03:11.077Z,99756.81
2022-09-06T08:04:13.085Z,99758.13
2022-09-06T08:06:13.086Z,99763.05
2022-09-06T08:07:39.674Z,99755.92
2022-09-06T08:09:13.118Z,99753.04
2022-09-06T08:10:11.069Z,99753.75
2022-09-06T08:11:13.088Z,99758.62
2022-09-06T08:12:12.066Z,99753.20
2022-09-06T08:13:11.069Z,99753.22
2022-09-06T08:14:11.066Z,99748.38
2022-09-06T08:15:11.068Z,99744.61
2022-09-06T08:16:11.096Z,99745.64
2022-09-06T08:17:11.067Z,99741.83
2022-09-06T08:18:11.067Z,99746.52
2022-09-06T08:19:12.071Z,99746.16
2022-09-06T08:20:11.068Z,99745.05
2022-09-06T08:21:15.058Z,99742.82
2022-09-06T08:22:11.058Z,99737.20
2022-09-06T08:23:13.061Z,99739.23
2022-09-06T08:24:11.058Z,99738.80
2022-09-06T08:25:11.060Z,99740.59
2022-09-06T08:26:11.061Z,99742.72
2022-09-06T08:27:11.058Z,99743.71
2022-09-06T08:28:11.064Z,99745.27
2022-09-06T08:29:11.084Z,99747.77
2022-09-06T08:30:11.059Z,99749.06
2022-09-06T08:31:17.142Z,99749.35
2022-09-06T08:32:11.071Z,99747.13
2022-09-06T08:33:11.062Z,99747.00
2022-09-06T08:34:11.060Z,99747.16
2022-09-06T08:35:11.063Z,99746.70
2022-09-06T08:36:11.063Z,99747.70
2022-09-06T08:37:11.057Z,99744.36
2022-09-06T08:38:11.062Z,99741.30
2022-09-06T08:39:11.065Z,99741.18
2022-09-06T08:40:11.154Z,99742.32
2022-09-06T08:41:19.071Z,99740.52
2022-09-06T08:42:11.071Z,99741.20
2022-09-06T08:43:16.062Z,99742.52
2022-09-06T08:45:17.139Z,99740.85
2022-09-06T08:46:11.130Z,99741.27
2022-09-06T08:47:11.060Z,99740.20
2022-09-06T08:48:11.062Z,99743.01
2022-09-06T08:49:11.065Z,99739.49
2022-09-06T08:50:11.062Z,99735.33
2022-09-06T08:51:21.062Z,99732.48
2022-09-06T08:52:21.076Z,99729.73
2022-09-06T08:53:18.447Z,99731.43
2022-09-06T08:54:18.063Z,99735.82
2022-09-06T08:55:19.061Z,99732.70
2022-09-06T08:56:21.064Z,99735.92
2022-09-06T08:57:19.073Z,99737.57
2022-09-06T08:58:19.067Z,99737.76
2022-09-06T08:59:15.065Z,99744.91
2022-09-06T09:00:14.062Z,99742.38
2022-09-06T09:01:17.115Z,99747.90
2022-09-06T09:02:14.117Z,99749.70
2022-09-06T09:03:16.611Z,99753.58
2022-09-06T09:04:15.070Z,99749.51
2022-09-06T09:05:19.073Z,99750.88
2022-09-06T09:06:11.077Z,99751.03
2022-09-06T09:07:19.065Z,99755.31
2022-09-06T09:08:19.069Z,99753.67
2022-09-06T09:09:14.068Z,99750.29
2022-09-06T09:10:16.070Z,99750.82
2022-09-06T09:11:18.078Z,99751.11
2022-09-06T09:12:11.069Z,99750.72
2022-09-06T09:13:19.077Z,99744.44
2022-09-06T09:14:19.067Z,99750.46
2022-09-06T09:15:12.066Z,99746.30
2022-09-06T09:16:11.129Z,99742.54
2022-09-06T09:17:20.079Z,99743.02
2022-09-06T09:18:11.068Z,99743.43
2022-09-06T09:19:11.066Z,99744.75
2022-09-06T09:20:12.070Z,99745.32
2022-09-06T09:21:11.066Z,99739.16
2022-09-06T09:22:11.057Z,99744.64
2022-09-06T09:23:11.060Z,99745.70
2022-09-06T09:24:14.067Z,99744.25
2022-09-06T09:25:15.064Z,99747.51
2022-09-06T09:26:15.060Z,99745.14
2022-09-06T09:27:11.121Z,99741.48
2022-09-06T09:28:16.073Z,99741.59
2022-09-06T09:29:14.061Z,99739.00
2022-09-06T09:31:13.335Z,99743.10
2022-09-06T09:32:11.067Z,99740.45
2022-09-06T09:33:19.059Z,99737.27
2022-09-06T09:34:21.065Z,99737.82
2022-09-06T09:35:19.062Z,99735.98
2022-09-06T09:36:12.062Z,99731.42
2022-09-06T09:37:46.911Z,99730.61
2022-09-06T09:38:13.298Z,99733.05
2022-09-06T09:39:13.065Z,99728.41
2022-09-06T09:40:21.070Z,99731.89
2022-09-06T09:41:11.065Z,99736.34
2022-09-06T09:42:11.061Z,99732.43
2022-09-06T09:43:20.060Z,99736.00
2022-09-06T09:44:17.064Z,99736.07
2022-09-06T09:45:19.063Z,99734.01
2022-09-06T09:46:21.088Z,99735.44
2022-09-06T09:47:19.060Z,99740.33
2022-09-06T09:48:19.063Z,99741.76
2022-09-06T09:49:19.071Z,99745.34
2022-09-06T09:50:19.063Z,99748.54
2022-09-06T09:51:25.499Z,99752.16
2022-09-06T09:52:16.337Z,99747.76
2022-09-06T09:53:14.063Z,99746.02
2022-09-06T09:54:14.078Z,99747.04
2022-09-06T09:55:12.063Z,99745.48
2022-09-06T09:56:11.065Z,99748.72
2022-09-06T09:57:13.073Z,99747.68
2022-09-06T09:58:19.062Z,99749.90
2022-09-06T09:59:19.060Z,99746.54
2022-09-06T10:00:15.065Z,99747.80
2022-09-06T10:01:21.083Z,99747.39
2022-09-06T10:02:19.066Z,99748.57
2022-09-06T10:03:16.108Z,99745.30
2022-09-06T10:05:21.294Z,99749.38
2022-09-06T10:07:16.071Z,99748.85
2022-09-06T10:08:14.073Z,99743.64
2022-09-06T10:09:21.068Z,99745.93
2022-09-06T10:10:19.075Z,99743.73
2022-09-06T10:11:13.066Z,99744.09
2022-09-06T10:12:15.065Z,99744.18
2022-09-06T10:13:21.066Z,99749.58
2022-09-06T10:14:18.075Z,99742.62
2022-09-06T10:15:11.069Z,99746.01
2022-09-06T10:16:11.174Z,99741.48
2022-09-06T10:17:15.068Z,99745.05
2022-09-06T10:18:21.072Z,99749.38
2022-09-06T10:19:19.070Z,99753.38
2022-09-06T10:20:12.071Z,99756.81
2022-09-06T10:21:17.058Z,99755.55
2022-09-06T10:22:19.065Z,99756.88
2022-09-06T10:24:28.436Z,99754.75
2022-09-06T10:25:21.069Z,99751.69
2022-09-06T10:26:19.060Z,99753.02
2022-09-06T10:27:11.058Z,99747.87
2022-09-06T10:28:19.064Z,99752.31
2022-09-06T10:29:11.061Z,99748.39
2022-09-06T10:30:11.059Z,99748.56
2022-09-06T10:31:19.137Z,99746.36
2022-09-06T10:32:19.062Z,99747.03
2022-09-06T10:33:21.059Z,99749.16
2022-09-06T10:34:21.070Z,99748.63
2022-09-06T10:35:19.059Z,99751.17
2022-09-06T10:36:11.069Z,99752.32
2022-09-06T10:37:19.071Z,99751.47
2022-09-06T10:38:19.061Z,99744.22
2022-09-06T10:39:21.062Z,99745.10
2022-09-06T10:40:16.071Z,99743.78
2022-09-06T10:41:21.062Z,99742.21
2022-09-06T10:42:19.061Z,99741.12
2022-09-06T10:43:18.064Z,99744.73
2022-09-06T10:44:19.066Z,99740.48
2022-09-06T10:45:21.064Z,99740.25
2022-09-06T10:46:17.129Z,99738.61
2022-09-06T10:47:14.063Z,99738.44
2022-09-06T10:48:22.063Z,99737.49
2022-09-06T10:49:17.070Z,99738.62
2022-09-06T10:50:11.123Z,99731.33
2022-09-06T10:51:19.059Z,99729.49
2022-09-06T10:52:13.064Z,99731.90
2022-09-06T10:53:19.064Z,99724.17
2022-09-06T10:54:14.064Z,99727.41
2022-09-06T10:55:15.066Z,99721.85
2022-09-06T10:56:19.072Z,99721.52
2022-09-06T10:59:37.678Z,99717.34
2022-09-06T11:00:17.340Z,99719.96
2022-09-06T11:01:21.187Z,99719.69
2022-09-06T11:02:23.237Z,99719.74
2022-09-06T11:04:16.067Z,99716.97
2022-09-06T11:05:39.410Z,99718.50
2022-09-06T11:06:13.073Z,99713.11
2022-09-06T11:07:20.065Z,99713.06
2022-09-06T11:08:47.071Z,99710.56
2022-09-06T11:09:25.365Z,99708.98
2022-09-06T11:10:19.068Z,99710.19
2022-09-06T11:11:17.096Z,99706.32
2022-09-06T11:12:18.066Z,99705.20
2022-09-06T11:13:19.066Z,99703.73
2022-09-06T11:14:13.080Z,99703.19
2022-09-06T11:15:12.067Z,99702.55
2022-09-06T11:16:19.159Z,99704.19
2022-09-06T11:17:19.067Z,99700.40
2022-09-06T11:18:21.073Z,99699.28
2022-09-06T11:19:19.066Z,99698.02
2022-09-06T11:20:19.082Z,99699.91
2022-09-06T11:21:21.057Z,99699.21
2022-09-06T11:22:19.058Z,99705.97
2022-09-06T11:23:21.072Z,99698.29
2022-09-06T11:24:18.074Z,99701.13
2022-09-06T11:25:19.065Z,99696.43
2022-09-06T11:26:19.061Z,99692.99
2022-09-06T11:27:21.057Z,99694.56
2022-09-06T11:28:15.057Z,99697.91
2022-09-06T11:29:16.059Z,99697.88
2022-09-06T11:30:15.064Z,99696.75
2022-09-06T11:32:21.300Z,99696.54
2022-09-06T11:33:19.063Z,99700.84
2022-09-06T11:34:18.062Z,99693.48
2022-09-06T11:35:15.068Z,99689.37
2022-09-06T11:36:18.063Z,99686.52
2022-09-06T11:37:15.060Z,99682.12
2022-09-06T11:38:19.060Z,99679.48
2022-09-06T11:39:11.063Z,99681.21
2022-09-06T11:40:27.375Z,99680.93
2022-09-06T11:41:18.085Z,99680.24
2022-09-06T11:42:15.063Z,99674.93
2022-09-06T11:43:12.077Z,99675.16
2022-09-06T11:44:11.065Z,99672.63
2022-09-06T11:45:18.065Z,99674.27
2022-09-06T11:46:11.075Z,99676.74
2022-09-06T11:47:11.063Z,99672.90
2022-09-06T11:48:19.064Z,99677.07
2022-09-06T11:49:19.063Z,99670.50
2022-09-06T11:50:19.065Z,99671.35
2022-09-06T11:51:11.239Z,99669.60
2022-09-06T11:52:19.062Z,99669.46
2022-09-06T11:53:17.061Z,99660.71
2022-09-06T11:54:19.064Z,99660.22
2022-09-06T11:55:12.071Z,99661.89
2022-09-06T11:56:21.086Z,99655.95
2022-09-06T11:57:16.063Z,99658.00
2022-09-06T11:58:21.069Z,99651.35
2022-09-06T11:59:21.104Z,99654.35
2022-09-06T12:00:19.065Z,99652.96
2022-09-06T12:01:19.073Z,99649.95
2022-09-06T12:02:19.127Z,99648.62
2022-09-06T12:04:13.097Z,99645.88